Time;durP1;ratioP1;P1;durP2;ratioP2;P2;SDS_P1;SDS_P2;PMS_P1;PMS_P2;Temp;Humidity;BMP_temperature;BMP_pressure;BME280_temperature;BME280_humidity;BME280_pressure;Samples;Min_cycle;Max_cycle;Signal;HPM_P1;HPM_P2
2022/08/18 00:01:21;;;;;;;16.27;14.43;;;20.30;99.90;;;;;;4318364;28;10000053;-70
2022/08/18 00:03:48;;;;;;;15.88;14.25;;;20.30;99.90;;;;;;5015267;28;20037;-70
2022/08/18 00:06:14;;;;;;;21.55;17.50;;;20.30;99.90;;;;;;5013903;28;20042;-70
2022/08/18 00:08:40;;;;;;;19.15;17.20;;;20.30;99.90;;;;;;5019333;28;20114;-70
2022/08/18 00:11:06;;;;;;;15.63;14.02;;;20.20;99.90;;;;;;5014283;28;20072;-70
2022/08/18 00:13:32;;;;;;;16.15;14.45;;;20.20;99.90;;;;;;5013652;28;20047;-70
2022/08/18 00:15:58;;;;;;;18.67;15.60;;;20.20;99.90;;;;;;5017113;28;20075;-71
2022/08/18 00:18:23;;;;;;;21.58;18.85;;;20.10;99.90;;;;;;5014542;28;20033;-70
2022/08/18 00:20:49;;;;;;;22.55;18.35;;;20.10;99.90;;;;;;5014524;28;20516;-70
2022/08/18 00:23:15;;;;;;;19.08;17.02;;;20.10;99.90;;;;;;5015708;28;20036;-70
2022/08/18 00:25:41;;;;;;;18.55;16.52;;;20.10;99.90;;;;;;5020414;28;20032;-70
2022/08/18 00:28:06;;;;;;;16.73;15.02;;;20.10;99.90;;;;;;5013561;28;20033;-70
2022/08/18 00:30:33;;;;;;;19.27;16.35;;;20.10;99.90;;;;;;5018908;28;20363;-70
2022/08/18 00:33:00;;;;;;;16.92;15.15;;;20.00;99.90;;;;;;5012730;28;20524;-69
2022/08/18 00:35:28;;;;;;;15.80;14.10;;;20.00;99.90;;;;;;5017177;28;20030;-69
2022/08/18 00:37:56;;;;;;;16.15;14.48;;;19.90;99.90;;;;;;5018469;28;20090;-70
2022/08/18 00:40:27;;;;;;;17.85;15.95;;;19.90;99.90;;;;;;5013601;28;20040;-70
2022/08/18 00:43:00;;;;;;;18.20;16.30;;;19.80;99.90;;;;;;5013043;28;20034;-70
2022/08/18 00:45:31;;;;;;;19.13;16.30;;;19.80;99.90;;;;;;5022107;28;20087;-70
2022/08/18 00:47:58;;;;;;;17.50;15.68;;;19.80;99.90;;;;;;5017405;28;20040;-70
2022/08/18 00:50:31;;;;;;;16.27;14.68;;;19.70;99.90;;;;;;5007843;28;20065;-70
2022/08/18 00:53:01;;;;;;;20.00;17.88;;;19.70;99.90;;;;;;5016280;28;20045;-70
2022/08/18 00:55:29;;;;;;;25.95;20.67;;;19.70;99.90;;;;;;5017707;28;20032;-70
2022/08/18 00:58:03;;;;;;;20.73;17.50;;;19.70;99.90;;;;;;5014582;28;20461;-70
2022/08/18 01:00:29;;;;;;;17.52;15.70;;;19.70;99.90;;;;;;5017792;28;20531;-70
2022/08/18 01:02:59;;;;;;;21.13;18.85;;;19.70;99.90;;;;;;5014053;28;20065;-70
2022/08/18 01:05:29;;;;;;;24.38;20.85;;;19.60;99.90;;;;;;5018734;28;20117;-69
2022/08/18 01:07:55;;;;;;;22.35;19.50;;;19.60;99.90;;;;;;5021779;28;20110;-70
2022/08/18 01:10:22;;;;;;;20.83;18.70;;;19.50;99.90;;;;;;5013262;28;20397;-70
2022/08/18 01:12:56;;;;;;;21.92;19.08;;;19.50;99.90;;;;;;5017600;28;20037;-70
2022/08/18 01:15:24;;;;;;;21.17;18.33;;;19.50;99.90;;;;;;5016648;28;20091;-70
2022/08/18 01:23:33;;;;;;;57.35;47.25;;;19.50;99.90;;;;;;5016429;28;20124;-71
2022/08/18 01:25:59;;;;;;;54.78;44.15;;;19.60;99.90;;;;;;5014012;28;20111;-70
2022/08/18 01:28:26;;;;;;;63.67;47.38;;;19.70;99.90;;;;;;5016918;28;20465;-70
2022/08/18 01:30:56;;;;;;;52.92;43.22;;;19.80;99.90;;;;;;5020925;28;20029;-70
2022/08/18 01:33:31;;;;;;;53.28;43.25;;;19.90;99.90;;;;;;5013891;28;20026;-70
2022/08/18 01:35:59;;;;;;;45.60;36.40;;;19.90;99.90;;;;;;5012634;28;20029;-70
2022/08/18 01:38:25;;;;;;;35.38;29.52;;;20.00;99.90;;;;;;5015905;28;20025;-70
2022/08/18 01:40:51;;;;;;;27.60;22.92;;;20.00;99.90;;;;;;5018932;28;20029;-70
2022/08/18 01:43:17;;;;;;;22.08;19.35;;;19.90;99.90;;;;;;5011545;28;20057;-70
2022/08/18 01:45:43;;;;;;;28.17;22.45;;;19.80;99.90;;;;;;5013976;28;20049;-70
2022/08/18 01:48:09;;;;;;;26.10;22.70;;;19.80;99.90;;;;;;5017811;28;20021;-74
2022/08/18 01:50:36;;;;;;;28.30;25.08;;;19.70;99.90;;;;;;5022956;28;20417;-74
2022/08/18 01:53:04;;;;;;;24.10;21.50;;;19.60;99.90;;;;;;5023765;28;20037;-73
2022/08/18 01:55:31;;;;;;;23.45;20.20;;;19.50;99.90;;;;;;5022915;28;20069;-73
2022/08/18 01:57:57;;;;;;;19.88;17.77;;;19.40;99.90;;;;;;5007140;28;20056;-73
2022/08/18 02:00:24;;;;;;;20.25;17.67;;;19.30;99.90;;;;;;5007138;28;20113;-73
2022/08/18 02:02:50;;;;;;;18.13;16.25;;;19.20;99.90;;;;;;5011245;28;20128;-73
2022/08/18 02:05:23;;;;;;;19.05;17.02;;;19.20;99.90;;;;;;5025748;28;20029;-73
2022/08/18 02:07:49;;;;;;;20.63;18.40;;;19.20;99.90;;;;;;5025622;28;20029;-73
2022/08/18 02:10:14;;;;;;;22.95;20.50;;;19.10;99.90;;;;;;5018750;28;20568;-73
2022/08/18 02:12:40;;;;;;;24.17;21.42;;;19.10;99.90;;;;;;5004023;28;20026;-73
2022/08/18 02:15:07;;;;;;;24.55;22.00;;;19.20;99.90;;;;;;5006776;28;20025;-73
2022/08/18 02:17:41;;;;;;;37.90;28.70;;;19.10;99.90;;;;;;5021679;28;20105;-73
2022/08/18 02:20:09;;;;;;;32.30;28.27;;;19.10;99.90;;;;;;5021409;28;20021;-74
2022/08/18 02:22:35;;;;;;;29.17;25.85;;;19.20;99.90;;;;;;5004532;28;20064;-74
2022/08/18 02:25:00;;;;;;;35.95;29.20;;;19.20;99.90;;;;;;5024759;28;20501;-74
2022/08/18 02:27:27;;;;;;;29.92;26.20;;;19.20;99.90;;;;;;5014673;28;20042;-74
2022/08/18 02:29:53;;;;;;;29.98;26.02;;;19.10;99.90;;;;;;5006212;28;20030;-74
2022/08/18 02:32:19;;;;;;;27.73;24.67;;;19.10;99.90;;;;;;5005255;28;20030;-74
2022/08/18 02:34:45;;;;;;;33.10;28.42;;;19.10;99.90;;;;;;5020735;28;20413;-74
2022/08/18 02:37:11;;;;;;;32.15;27.65;;;19.10;99.90;;;;;;5022251;28;20032;-74
2022/08/18 02:39:37;;;;;;;33.15;29.25;;;19.10;99.90;;;;;;5022061;28;20034;-74
2022/08/18 02:42:04;;;;;;;32.33;28.83;;;19.10;99.90;;;;;;5011522;28;20034;-74
2022/08/18 02:44:30;;;;;;;34.88;30.20;;;19.10;99.90;;;;;;5019274;28;20042;-74
2022/08/18 02:46:57;;;;;;;37.70;32.33;;;19.10;99.90;;;;;;5013389;28;20030;-74
2022/08/18 02:49:23;;;;;;;32.30;28.73;;;19.10;99.90;;;;;;5025217;28;20429;-74
2022/08/18 02:51:52;;;;;;;30.05;26.58;;;19.10;99.90;;;;;;5009474;28;20033;-74
2022/08/18 02:54:21;;;;;;;40.60;33.63;;;19.10;99.90;;;;;;5014215;28;20036;-74
2022/08/18 02:56:49;;;;;;;36.55;31.13;;;19.00;99.90;;;;;;5020391;28;20038;-74
2022/08/18 02:59:18;;;;;;;43.60;33.70;;;19.10;99.90;;;;;;5026390;28;20454;-74
2022/08/18 03:01:47;;;;;;;42.83;35.90;;;19.10;99.90;;;;;;5025652;28;20030;-74
2022/08/18 03:04:16;;;;;;;49.00;39.83;;;19.10;99.90;;;;;;5021759;28;20131;-74
2022/08/18 03:06:42;;;;;;;40.33;33.30;;;19.10;99.90;;;;;;5025405;28;20486;-74
2022/08/18 03:09:09;;;;;;;34.47;29.25;;;19.00;99.90;;;;;;5026931;28;20033;-74
2022/08/18 03:11:36;;;;;;;32.45;26.60;;;19.00;99.90;;;;;;5019908;28;20033;-74
2022/08/18 03:14:04;;;;;;;29.00;23.63;;;18.90;99.90;;;;;;5022697;28;20029;-74
2022/08/18 03:16:31;;;;;;;31.90;22.23;;;18.80;99.90;;;;;;5019044;28;20584;-75
2022/08/18 03:18:58;;;;;;;28.90;24.95;;;18.70;99.90;;;;;;5024948;28;20048;-74
2022/08/18 03:21:26;;;;;;;28.50;23.50;;;18.70;99.90;;;;;;5019628;28;20026;-74
2022/08/18 03:23:53;;;;;;;31.42;26.65;;;18.60;99.90;;;;;;5021783;28;20497;-74
2022/08/18 03:26:20;;;;;;;26.08;23.20;;;18.60;99.90;;;;;;5021609;28;20393;-74
2022/08/18 03:28:49;;;;;;;25.27;21.63;;;18.60;99.90;;;;;;5016566;28;20030;-74
2022/08/18 03:31:16;;;;;;;39.72;31.65;;;18.60;99.90;;;;;;5020393;28;20507;-74
2022/08/18 03:33:43;;;;;;;29.75;26.50;;;18.70;99.90;;;;;;5020555;28;20400;-74
2022/08/18 03:36:15;;;;;;;27.55;24.48;;;18.70;99.90;;;;;;5021748;28;20013;-74
2022/08/18 03:38:43;;;;;;;33.17;28.00;;;18.70;99.90;;;;;;5023777;28;20421;-74
2022/08/18 03:41:10;;;;;;;40.00;32.38;;;18.70;99.90;;;;;;5010809;28;20032;-74
2022/08/18 03:43:36;;;;;;;44.05;36.00;;;18.70;99.90;;;;;;5022833;28;20074;-74
2022/08/18 03:46:05;;;;;;;44.78;37.53;;;18.70;99.90;;;;;;5015833;28;20198;-74
2022/08/18 03:48:34;;;;;;;44.45;36.65;;;18.80;99.90;;;;;;5025290;28;20030;-74
2022/08/18 03:51:09;;;;;;;40.45;35.10;;;18.80;99.90;;;;;;5024446;28;20034;-74
2022/08/18 03:53:36;;;;;;;36.33;31.92;;;18.80;99.90;;;;;;5009440;28;20026;-74
2022/08/18 03:56:14;;;;;;;40.20;33.65;;;18.80;99.90;;;;;;5029959;28;20183;-74
2022/08/18 03:58:52;;;;;;;51.95;40.88;;;18.70;99.90;;;;;;5011933;28;20046;-74
2022/08/18 04:01:21;;;;;;;43.10;34.95;;;18.80;99.90;;;;;;5017836;28;20489;-74
2022/08/18 04:03:49;;;;;;;43.28;35.58;;;18.70;99.90;;;;;;5019179;28;20109;-74
2022/08/18 04:06:21;;;;;;;52.50;42.97;;;18.70;99.90;;;;;;5018585;28;20042;-74
2022/08/18 04:08:50;;;;;;;43.17;37.35;;;18.80;99.90;;;;;;5022593;28;20017;-74
2022/08/18 04:11:16;;;;;;;66.45;50.05;;;18.80;99.90;;;;;;5022443;28;20397;-74
2022/08/18 04:13:42;;;;;;;57.25;46.00;;;18.90;99.90;;;;;;5014470;28;20148;-74
2022/08/18 04:16:08;;;;;;;59.97;45.80;;;18.80;99.90;;;;;;5018743;28;20500;-74
2022/08/18 04:18:34;;;;;;;55.33;45.13;;;18.80;99.90;;;;;;5024892;28;20525;-74
2022/08/18 04:21:02;;;;;;;53.75;43.30;;;18.80;99.90;;;;;;5017406;28;20116;-74
2022/08/18 04:23:28;;;;;;;48.97;39.70;;;18.70;99.90;;;;;;5023240;28;20033;-74
2022/08/18 04:25:58;;;;;;;49.38;39.72;;;18.70;99.90;;;;;;5023841;28;20071;-74
2022/08/18 04:28:24;;;;;;;41.45;34.60;;;18.60;99.90;;;;;;5022282;28;20028;-74
2022/08/18 04:30:50;;;;;;;37.70;32.25;;;18.60;99.90;;;;;;5010616;28;20492;-74
2022/08/18 04:33:15;;;;;;;51.85;40.35;;;18.60;99.90;;;;;;5022583;28;20260;-74
2022/08/18 04:35:41;;;;;;;37.95;31.67;;;18.60;99.90;;;;;;5024434;28;20025;-74
2022/08/18 04:38:06;;;;;;;45.75;36.85;;;18.50;99.90;;;;;;5025235;28;20505;-74
2022/08/18 04:40:33;;;;;;;62.80;46.63;;;18.50;99.90;;;;;;5023420;28;20087;-74
2022/08/18 04:43:00;;;;;;;49.60;41.40;;;18.40;99.90;;;;;;5012372;28;20541;-74
2022/08/18 04:45:26;;;;;;;46.97;39.05;;;18.40;99.90;;;;;;5026499;28;20037;-74
2022/08/18 04:47:52;;;;;;;45.13;38.78;;;18.40;99.90;;;;;;5018462;28;20045;-74
2022/08/18 04:50:18;;;;;;;48.97;39.72;;;18.40;99.90;;;;;;5016354;28;20030;-74
2022/08/18 04:55:28;;;;;;;58.63;43.55;;;18.30;99.90;;;;;;5020328;28;20067;-74
2022/08/18 04:57:54;;;;;;;50.55;41.00;;;18.30;99.90;;;;;;5026686;28;20069;-74
2022/08/18 05:00:20;;;;;;;42.90;36.60;;;18.30;99.90;;;;;;5023232;28;20075;-74
2022/08/18 05:02:46;;;;;;;39.13;33.78;;;18.30;99.90;;;;;;5007042;28;20035;-74
2022/08/18 05:05:11;;;;;;;41.05;33.70;;;18.30;99.90;;;;;;5011880;28;20434;-74
2022/08/18 05:07:45;;;;;;;47.80;39.25;;;18.30;99.90;;;;;;5023687;28;20047;-74
2022/08/18 05:10:12;;;;;;;44.83;37.22;;;18.30;99.90;;;;;;5017747;28;20026;-74
2022/08/18 05:12:41;;;;;;;44.95;38.05;;;18.40;99.90;;;;;;5021951;28;20057;-73
2022/08/18 05:15:08;;;;;;;45.15;38.03;;;18.40;99.90;;;;;;5022530;28;20390;-74
2022/08/18 05:17:38;;;;;;;60.08;45.88;;;18.40;99.90;;;;;;5025882;28;20118;-74
2022/08/18 05:20:06;;;;;;;53.22;44.22;;;18.50;99.90;;;;;;5020486;28;20481;-74
2022/08/18 05:22:40;;;;;;;48.78;40.78;;;18.50;99.90;;;;;;5013682;28;20087;-74
2022/08/18 05:25:09;;;;;;;;;;;18.50;99.90;;;;;;5013715;28;20453;-74
2022/08/18 05:27:41;;;;;;;39.42;32.15;;;18.60;99.90;;;;;;5022388;28;20083;-73
2022/08/18 05:30:09;;;;;;;48.08;40.15;;;18.60;99.90;;;;;;5019815;28;20022;-74
2022/08/18 05:32:46;;;;;;;45.55;37.97;;;18.60;99.90;;;;;;5015592;28;20052;-74
2022/08/18 05:35:17;;;;;;;53.80;42.10;;;18.70;99.90;;;;;;5020170;28;20033;-73
2022/08/18 05:38:33;;;;;;;44.65;36.60;;;18.80;99.90;;;;;;5013668;28;20057;-74
2022/08/18 05:41:09;;;;;;;41.25;34.42;;;18.80;99.90;;;;;;5011227;28;20025;-74
2022/08/18 05:43:37;;;;;;;51.80;41.42;;;18.90;99.90;;;;;;5012139;28;20030;-74
2022/08/18 05:46:05;;;;;;;57.00;43.53;;;18.90;99.90;;;;;;5024492;28;20032;-74
2022/08/18 05:48:31;;;;;;;50.67;38.03;;;19.00;99.90;;;;;;5023753;28;20021;-74
2022/08/18 05:51:02;;;;;;;48.65;39.38;;;19.10;99.90;;;;;;5021600;28;20457;-73
2022/08/18 05:56:45;;;;;;;56.10;45.40;;;19.10;99.90;;;;;;5013662;28;20030;-74
2022/08/18 05:59:07;;;;;;;49.97;40.53;;;19.30;99.90;;;;;;5006726;28;20524;-74
2022/08/18 06:01:41;;;;;;;55.67;44.17;;;19.40;99.90;;;;;;5016551;28;20029;-73
2022/08/18 06:04:25;;;;;;;59.35;45.90;;;19.50;99.90;;;;;;5021611;28;20025;-74
2022/08/18 06:06:52;;;;;;;56.50;44.20;;;19.60;99.90;;;;;;5017049;28;20040;-74
2022/08/18 06:09:21;;;;;;;60.20;46.33;;;19.70;99.90;;;;;;5023635;28;20044;-74
2022/08/18 06:11:47;;;;;;;49.30;40.95;;;19.70;99.90;;;;;;5017784;28;20061;-74
2022/08/18 06:14:13;;;;;;;46.10;37.85;;;19.80;99.90;;;;;;5007219;28;20050;-74
2022/08/18 06:16:42;;;;;;;44.83;35.38;;;19.80;99.90;;;;;;5016575;28;20316;-74
2022/08/18 06:19:24;;;;;;;55.70;44.08;;;19.80;99.90;;;;;;5019056;28;20021;-74
2022/08/18 06:21:55;;;;;;;58.40;45.10;;;19.80;99.90;;;;;;5021610;28;20194;-74
2022/08/18 06:24:42;;;;;;;52.55;43.83;;;19.90;99.90;;;;;;5018655;28;20041;-74
2022/08/18 06:27:29;;;;;;;52.45;41.90;;;20.00;99.90;;;;;;5029560;28;20090;-74
2022/08/18 06:30:04;;;;;;;43.10;36.95;;;20.00;99.90;;;;;;5023020;28;20044;-74
2022/08/18 06:32:40;;;;;;;50.20;38.97;;;20.00;99.90;;;;;;5009604;28;20108;-74
2022/08/18 06:35:08;;;;;;;52.97;41.17;;;20.00;99.90;;;;;;5026019;28;20053;-74
2022/08/18 06:40:28;;;;;;;;;;;20.10;99.90;;;;;;5019341;28;20036;-74
2022/08/18 06:42:53;;;;;;;54.85;43.45;;;20.20;99.90;;;;;;5019909;28;19914;-74
2022/08/18 06:45:34;;;;;;;53.50;42.25;;;20.30;99.90;;;;;;5015982;28;20478;-74
2022/08/18 06:48:19;;;;;;;49.20;38.28;;;20.30;99.90;;;;;;5011751;28;20038;-74
2022/08/18 06:51:00;;;;;;;48.70;37.78;;;20.40;99.90;;;;;;5023139;28;20050;-74
2022/08/18 06:53:51;;;;;;;45.20;37.05;;;20.50;99.90;;;;;;5008681;28;20041;-74
2022/08/18 06:56:38;;;;;;;54.53;43.70;;;20.60;99.90;;;;;;4999955;28;20033;-74
2022/08/18 06:59:27;;;;;;;56.20;45.60;;;20.70;99.90;;;;;;5017071;28;20647;-74
2022/08/18 07:01:59;;;;;;;49.08;39.92;;;20.70;99.90;;;;;;5014958;28;20041;-74
2022/08/18 07:04:39;;;;;;;44.65;38.05;;;20.70;99.90;;;;;;5010196;28;20026;-74
2022/08/18 07:07:28;;;;;;;38.30;34.15;;;20.70;99.90;;;;;;5019374;28;20473;-74
2022/08/18 07:09:54;;;;;;;58.30;45.35;;;20.70;99.90;;;;;;5011489;28;20029;-74
2022/08/18 07:12:24;;;;;;;63.13;48.92;;;20.70;99.90;;;;;;5009103;28;20390;-74
2022/08/18 07:14:53;;;;;;;55.85;46.65;;;20.80;99.90;;;;;;5027109;28;20052;-73
2022/08/18 07:17:28;;;;;;;61.30;48.25;;;20.90;99.90;;;;;;5029662;28;20412;-74
2022/08/18 07:19:56;;;;;;;58.92;45.28;;;20.90;99.90;;;;;;5019872;28;20029;-74
2022/08/18 07:22:22;;;;;;;51.63;42.67;;;21.00;99.90;;;;;;5020935;28;20065;-74
2022/08/18 07:24:51;;;;;;;54.15;43.00;;;21.10;99.90;;;;;;5024314;28;20155;-74
2022/08/18 07:27:21;;;;;;;55.95;45.75;;;21.20;99.90;;;;;;5017206;28;20112;-74
2022/08/18 07:30:06;;;;;;;57.15;45.53;;;21.30;99.90;;;;;;5025392;28;20025;-74
2022/08/18 07:32:36;;;;;;;50.92;41.88;;;21.40;99.90;;;;;;5024928;28;20152;-73
2022/08/18 07:35:05;;;;;;;46.83;39.63;;;21.40;99.90;;;;;;5012813;28;20053;-74
2022/08/18 07:37:41;;;;;;;48.20;40.75;;;21.40;99.90;;;;;;5027459;28;20358;-74
2022/08/18 07:40:34;;;;;;;47.38;39.70;;;21.40;99.90;;;;;;5018498;28;20084;-74
2022/08/18 07:43:18;;;;;;;54.85;45.10;;;21.50;99.90;;;;;;5016601;28;20033;-74
2022/08/18 07:45:46;;;;;;;52.97;41.08;;;21.50;99.90;;;;;;5020406;28;20033;-74
2022/08/18 07:48:18;;;;;;;46.75;38.63;;;21.50;99.90;;;;;;5023995;28;20109;-74
2022/08/18 07:50:47;;;;;;;53.53;40.58;;;21.60;99.90;;;;;;5021546;28;20032;-75
2022/08/18 07:53:35;;;;;;;53.72;42.67;;;21.60;99.90;;;;;;5011661;28;20080;-75
2022/08/18 07:56:10;;;;;;;60.13;46.60;;;21.80;99.90;;;;;;5024208;28;20022;-75
2022/08/18 07:58:53;;;;;;;52.13;42.15;;;22.00;99.90;;;;;;5017254;28;20052;-75
2022/08/18 08:01:48;;;;;;;65.28;50.10;;;22.20;99.90;;;;;;5020558;28;20378;-74
2022/08/18 08:04:44;;;;;;;70.28;51.58;;;22.50;99.90;;;;;;5020857;28;20033;-74
2022/08/18 08:07:15;;;;;;;60.75;47.38;;;22.60;99.90;;;;;;5023677;28;20125;-75
2022/08/18 08:09:50;;;;;;;67.20;49.53;;;22.70;99.90;;;;;;5010237;28;20030;-74
2022/08/18 08:12:36;;;;;;;56.55;41.33;;;22.90;99.90;;;;;;5013960;28;20025;-75
2022/08/18 08:15:26;;;;;;;51.63;39.58;;;23.10;99.90;;;;;;5008711;28;20072;-74
2022/08/18 08:17:59;;;;;;;42.25;32.25;;;23.30;99.90;;;;;;5021504;28;20039;-75
2022/08/18 08:20:32;;;;;;;45.65;34.72;;;23.50;99.90;;;;;;5019057;28;20634;-74
2022/08/18 08:23:04;;;;;;;53.20;34.97;;;23.60;99.90;;;;;;5017785;28;20036;-75
2022/08/18 08:25:43;;;;;;;43.13;33.05;;;23.70;99.90;;;;;;4671008;28;10000100;-74
2022/08/18 08:28:21;;;;;;;49.28;38.10;;;23.70;99.90;;;;;;5007407;28;20033;-74
2022/08/18 08:31:18;;;;;;;42.53;33.40;;;23.60;99.90;;;;;;5018492;28;20357;-74
2022/08/18 08:33:56;;;;;;;53.70;38.63;;;23.40;99.90;;;;;;5016405;28;20366;-74
2022/08/18 08:36:29;;;;;;;53.42;38.75;;;23.10;99.90;;;;;;5017203;28;20036;-74
2022/08/18 08:39:00;;;;;;;50.92;39.63;;;23.00;99.90;;;;;;5014453;28;20037;-74
2022/08/18 08:41:42;;;;;;;51.28;37.03;;;23.00;99.90;;;;;;5018858;28;20049;-74
2022/08/18 08:44:20;;;;;;;58.22;42.88;;;22.90;99.90;;;;;;5016738;28;20040;-75
2022/08/18 08:47:03;;;;;;;56.60;41.38;;;22.90;99.90;;;;;;5018304;28;20473;-76
2022/08/18 08:49:39;;;;;;;48.03;36.38;;;23.00;99.90;;;;;;5016977;28;20073;-75
2022/08/18 08:52:29;;;;;;;45.28;35.72;;;23.10;99.90;;;;;;5010220;28;20168;-75
2022/08/18 08:55:02;;;;;;;54.80;40.35;;;23.10;99.90;;;;;;5020628;28;20045;-75
2022/08/18 08:57:34;;;;;;;59.28;43.25;;;23.10;99.90;;;;;;5022328;28;20053;-75
2022/08/18 09:00:03;;;;;;;56.65;40.40;;;23.00;99.90;;;;;;5020247;28;20556;-75
2022/08/18 09:03:04;;;;;;;45.70;36.38;;;22.90;99.90;;;;;;5013352;28;20603;-75
2022/08/18 09:05:42;;;;;;;51.10;34.75;;;22.80;99.90;;;;;;5010908;28;20096;-75
2022/08/18 09:08:23;;;;;;;59.38;43.17;;;22.70;99.90;;;;;;5014350;28;20673;-75
2022/08/18 09:11:13;;;;;;;50.33;37.65;;;22.70;99.90;;;;;;5015774;28;20163;-75
2022/08/18 09:14:17;;;;;;;46.00;35.53;;;22.70;99.90;;;;;;5021756;28;20397;-75
2022/08/18 09:17:10;;;;;;;51.67;39.92;;;22.70;99.90;;;;;;4988373;28;20405;-74
2022/08/18 09:19:54;;;;;;;53.50;39.15;;;22.70;99.90;;;;;;5015486;28;20542;-75
2022/08/18 09:22:51;;;;;;;54.85;41.03;;;22.70;99.90;;;;;;5011768;28;20112;-74
2022/08/18 09:25:44;;;;;;;52.55;40.10;;;22.60;99.90;;;;;;5010702;28;20029;-74
2022/08/18 09:28:11;;;;;;;55.45;40.58;;;22.70;99.90;;;;;;5015959;28;20117;-74
2022/08/18 09:30:44;;;;;;;53.25;40.30;;;22.60;99.90;;;;;;5019577;28;20041;-74
2022/08/18 09:33:39;;;;;;;54.20;43.08;;;22.60;99.90;;;;;;5017960;28;20083;-74
2022/08/18 09:36:20;;;;;;;51.08;37.20;;;22.60;99.90;;;;;;5018356;28;20442;-74
2022/08/18 09:41:56;;;;;;;54.50;40.03;;;22.50;99.90;;;;;;5012086;28;20032;-75
2022/08/18 09:44:51;;;;;;;53.38;39.42;;;22.60;99.90;;;;;;5021371;28;20037;-75
2022/08/18 09:47:19;;;;;;;55.72;42.17;;;22.60;99.90;;;;;;5005197;28;20124;-75
2022/08/18 09:50:20;;;;;;;57.15;43.63;;;22.60;99.90;;;;;;5022381;28;20025;-76
2022/08/18 09:52:47;;;;;;;51.38;39.65;;;22.50;99.90;;;;;;4967454;28;20326;-76
2022/08/18 09:55:16;;;;;;;49.67;38.83;;;22.50;99.90;;;;;;5014837;28;20029;-76
2022/08/18 09:57:44;;;;;;;49.38;37.65;;;22.50;99.90;;;;;;5017050;28;20052;-76
2022/08/18 10:00:13;;;;;;;46.10;35.30;;;22.50;99.90;;;;;;5018708;28;20038;-76
2022/08/18 10:02:41;;;;;;;50.53;38.70;;;22.50;99.90;;;;;;5017009;28;20388;-76
2022/08/18 10:05:18;;;;;;;48.72;38.28;;;22.60;99.90;;;;;;5020004;28;20485;-76
2022/08/18 10:08:25;;;;;;;48.20;38.22;;;22.60;99.90;;;;;;5019352;28;20087;-76
2022/08/18 10:11:05;;;;;;;44.90;35.85;;;22.60;99.90;;;;;;5010379;28;20026;-74
2022/08/18 10:13:56;;;;;;;59.63;45.67;;;22.60;99.90;;;;;;5010183;28;20409;-73
2022/08/18 10:16:51;;;;;;;72.03;41.80;;;22.60;99.90;;;;;;5013903;28;20228;-74
2022/08/18 10:19:22;;;;;;;49.15;38.78;;;22.60;99.90;;;;;;5009454;28;20477;-74
2022/08/18 10:22:00;;;;;;;49.05;37.50;;;22.50;99.90;;;;;;5014447;28;20029;-72
2022/08/18 10:24:53;;;;;;;48.20;38.47;;;22.60;99.90;;;;;;5013917;28;20066;-74
2022/08/18 10:27:44;;;;;;;45.85;36.03;;;22.70;99.90;;;;;;5010572;28;20041;-73
2022/08/18 10:30:39;;;;;;;46.50;36.45;;;22.80;99.90;;;;;;5009398;28;20113;-73
2022/08/18 10:33:10;;;;;;;48.70;36.78;;;22.90;99.90;;;;;;4995566;28;20068;-73
2022/08/18 10:35:36;;;;;;;48.70;39.00;;;23.10;99.90;;;;;;5007075;28;20053;-74
2022/08/18 10:38:13;;;;;;;43.50;36.15;;;23.10;99.90;;;;;;5016590;28;20293;-73
2022/08/18 10:40:42;;;;;;;49.25;38.72;;;23.20;99.90;;;;;;5015133;28;20153;-74
2022/08/18 10:43:31;;;;;;;53.58;40.70;;;23.30;99.90;;;;;;5012800;28;20100;-73
2022/08/18 10:45:56;;;;;;;42.65;35.47;;;23.40;99.90;;;;;;5016852;28;20043;-73
2022/08/18 10:48:28;;;;;;;45.03;34.42;;;23.40;99.90;;;;;;5011950;28;20029;-73
2022/08/18 10:51:12;;;;;;;43.60;35.10;;;23.50;99.90;;;;;;5017996;28;20037;-73
2022/08/18 10:53:53;;;;;;;41.33;34.65;;;23.50;99.90;;;;;;5011148;28;20077;-73
2022/08/18 10:56:38;;;;;;;37.53;31.35;;;23.60;99.90;;;;;;5013427;28;20071;-73
2022/08/18 10:59:19;;;;;;;41.45;33.25;;;23.60;99.90;;;;;;5019844;28;20076;-73
2022/08/18 11:02:14;;;;;;;39.20;31.48;;;23.60;99.90;;;;;;5013194;28;20088;-73
2022/08/18 11:04:46;;;;;;;44.42;35.25;;;23.70;99.90;;;;;;5011063;28;20058;-73
2022/08/18 11:07:14;;;;;;;40.30;32.50;;;23.70;99.90;;;;;;5013837;28;20038;-73
2022/08/18 11:09:41;;;;;;;38.53;31.20;;;23.80;99.90;;;;;;5021442;28;20026;-73
2022/08/18 11:12:10;;;;;;;43.30;34.05;;;23.90;99.90;;;;;;5018717;28;20481;-73
2022/08/18 11:14:58;;;;;;;33.10;28.83;;;24.00;99.90;;;;;;5020898;28;20501;-74
2022/08/18 11:17:40;;;;;;;35.88;28.85;;;24.20;99.90;;;;;;5021006;28;20048;-73
2022/08/18 11:20:09;;;;;;;40.40;32.33;;;24.40;99.90;;;;;;5015860;28;20028;-74
2022/08/18 11:22:36;;;;;;;35.65;29.02;;;24.60;99.90;;;;;;5018162;28;20622;-74
2022/08/18 11:25:17;;;;;;;36.05;28.70;;;24.80;99.90;;;;;;5011306;28;20041;-73
2022/08/18 11:27:46;;;;;;;35.65;28.50;;;25.00;99.90;;;;;;5018889;28;20080;-74
2022/08/18 11:30:11;;;;;;;32.85;26.75;;;25.20;99.90;;;;;;5019518;28;20057;-74
2022/08/18 11:32:39;;;;;;;34.95;28.92;;;25.20;99.90;;;;;;5018043;28;20068;-74
2022/08/18 11:35:15;;;;;;;31.15;27.35;;;25.30;99.90;;;;;;5019633;28;20025;-75
2022/08/18 11:37:40;;;;;;;36.40;30.23;;;25.20;99.90;;;;;;5019235;28;20045;-75
2022/08/18 11:40:35;;;;;;;37.65;30.45;;;25.20;99.90;;;;;;5021293;28;20029;-76
2022/08/18 11:43:03;;;;;;;30.60;25.90;;;25.10;99.90;;;;;;5015644;28;20314;-75
2022/08/18 11:45:46;;;;;;;31.27;27.88;;;24.90;99.90;;;;;;5021868;28;20596;-76
2022/08/18 11:48:23;;;;;;;33.10;25.73;;;24.90;99.90;;;;;;5020945;28;20501;-75
2022/08/18 11:51:07;;;;;;;30.90;26.23;;;24.70;99.90;;;;;;5017339;28;20037;-74
2022/08/18 11:53:53;;;;;;;31.40;27.10;;;24.70;99.90;;;;;;5015333;28;20025;-75
2022/08/18 11:56:19;;;;;;;31.48;25.73;;;24.60;99.90;;;;;;5024174;28;20030;-77
2022/08/18 11:58:52;;;;;;;26.40;22.58;;;24.60;99.90;;;;;;5015793;28;20107;-77
2022/08/18 12:01:37;;;;;;;27.92;24.13;;;24.60;99.90;;;;;;5016736;28;20029;-77
2022/08/18 12:04:12;;;;;;;25.02;22.33;;;24.60;99.90;;;;;;5013764;28;20160;-78
2022/08/18 12:06:44;;;;;;;26.75;23.55;;;24.60;99.90;;;;;;5019913;28;20080;-79
2022/08/18 12:09:19;;;;;;;30.92;27.15;;;24.70;99.90;;;;;;5020976;28;20022;-78
2022/08/18 12:12:06;;;;;;;25.63;22.10;;;24.70;99.90;;;;;;5014047;28;20049;-77
2022/08/18 12:14:49;;;;;;;28.75;23.80;;;24.70;99.90;;;;;;5014095;28;20042;-78
2022/08/18 12:17:14;;;;;;;24.48;21.85;;;24.70;99.90;;;;;;5018065;28;20091;-78
2022/08/18 12:19:40;;;;;;;22.23;19.88;;;24.80;99.90;;;;;;5021125;28;20041;-78
2022/08/18 12:22:17;;;;;;;24.05;21.25;;;24.80;99.90;;;;;;5016629;28;20101;-78
2022/08/18 12:24:44;;;;;;;23.38;20.25;;;24.70;99.90;;;;;;5009377;28;20438;-78
2022/08/18 12:27:14;;;;;;;23.65;19.27;;;24.70;99.90;;;;;;5012571;28;20573;-77
2022/08/18 12:29:39;;;;;;;23.27;18.10;;;24.60;99.90;;;;;;5016450;28;20393;-77
2022/08/18 12:32:05;;;;;;;25.33;21.05;;;24.40;99.90;;;;;;5010800;28;20032;-77
2022/08/18 12:34:32;;;;;;;24.13;18.60;;;24.40;99.90;;;;;;5003926;28;20037;-78
2022/08/18 12:36:59;;;;;;;21.05;18.65;;;24.20;99.90;;;;;;5014936;28;20440;-78
2022/08/18 12:39:27;;;;;;;20.60;18.27;;;24.10;99.90;;;;;;5011110;28;20498;-78
2022/08/18 12:41:53;;;;;;;21.92;18.45;;;24.00;99.90;;;;;;5001615;28;20041;-77
2022/08/18 12:44:20;;;;;;;26.55;21.27;;;24.00;99.90;;;;;;5015605;28;20548;-77
2022/08/18 12:46:46;;;;;;;26.00;21.20;;;24.00;99.90;;;;;;5021399;28;20124;-77
2022/08/18 12:49:18;;;;;;;24.92;17.95;;;23.90;99.90;;;;;;5016261;28;20092;-77
2022/08/18 12:51:44;;;;;;;20.30;18.03;;;23.90;99.90;;;;;;5015805;28;20026;-77
2022/08/18 12:54:10;;;;;;;23.05;19.67;;;24.00;99.90;;;;;;5021925;28;20025;-77
2022/08/18 12:56:35;;;;;;;20.08;17.30;;;24.10;99.90;;;;;;5025034;28;20370;-77
2022/08/18 12:59:04;;;;;;;21.00;18.67;;;24.20;99.90;;;;;;5023270;28;20206;-78
2022/08/18 13:01:30;;;;;;;20.42;17.33;;;24.30;99.90;;;;;;5011991;28;20045;-77
2022/08/18 13:03:56;;;;;;;20.60;18.40;;;24.40;99.90;;;;;;5014798;28;20037;-78
2022/08/18 13:06:23;;;;;;;20.05;17.85;;;24.30;99.90;;;;;;5021345;28;20393;-78
2022/08/18 13:08:49;;;;;;;21.60;17.73;;;24.40;99.90;;;;;;5014278;28;20032;-77
2022/08/18 13:11:16;;;;;;;18.90;16.50;;;24.40;99.90;;;;;;5015295;28;20026;-78
2022/08/18 13:13:43;;;;;;;19.35;17.05;;;24.30;99.90;;;;;;5005464;28;20073;-76